CYQZ

Details ICAO CYQZ (YQZ)
Name QUESNEL
Region Canada
Timezone America/Vancouver (UTC-8.0)
Plans Departing 8
Arriving 6
Stats Elevation 1,789 ft / 545 m (AMSL)
Location 53.026076° -122.510366°
Runways 1
Magnetic Variation 17.117° E
Sunrise 2017-12-16 16:19:47 UTC / 2017-12-16 08:19:47 Local
Sunset 2017-12-16 23:54:39 UTC / 2017-12-16 15:54:39 Local
Advertisement - Login to hide

Runways

ID Width Length Bearing (true) Bearing (mag) Surface Threshold Offset Overrun Length
13 200 ft / 61 m 5,494 ft / 1,675 m 149.59° 132.47° Asphalt 0 ft / 0 m 0 ft / 0 m
31 200 ft / 61 m 5,494 ft / 1,675 m 329.60° 312.48° Asphalt 0 ft / 0 m 0 ft / 0 m

Map

Weather


0- 5 10 15 20 25 30 35+ Temperature / ° C

Clouds and Precipitation
Forecast for 2017-12-16 18:00 UTC. Updated 2 minutes ago

Ground ~20,000 ft ~40,000 ft Winds

METAR

CYQZ 161300Z AUTO 00000KT 5SM BR OVC003 M06/M07 A3012 RMK SLP235

TAF

TAF TAF CYQZ 161138Z 1612/1624 VRB03KT 2SM BR OVC003 TEMPO 1612/1619 P6SM NSW SCT003 OVC010 FM161900 15008KT P6SM SCT010 BKN060 PROB30 1619/1621 1SM BR OVC006 FM162100 15005KT P6SM SCT010 OVC050 TEMPO 1621/1624 3SM -SN BKN010 OVC050 RMK FCST BASED ON AUTO OBS. NXT FCST BY 161900Z

Frequencies

Recorded 124.40 MHz AWOS
Tower 122.20 MHz WILLIAMS LAKE RDO
Warning: Do not use this data for real-world aviation or navigation. No guarantee of current accuracy is given.